Islip, New York
Current Conditions -  °F | °C
As of 2:56 PM on Tuesday 25 Nov 2014 (Local Time) from KISP Reporting Station
Overcast Overcast  
Wind Chill: 12°   Ceiling: 15000
Heat Index: 12°   Visibility: 10mi
Dew Point: -2°   Wind: 7mph
Humidity: 37%   Direction: 270°W
Pressure: 29.97"   Gusts: NA
Location:  40.73°N, 73.21°W
Report Text: KISP 251956Z 27006KT 10SM FEW050 OVC150 12/M02 A2997 RMK AO2 SLP148 T01221022
Loading
Personal Weather Stations






























Interactive Weather Map New forecast layout! Learn more

10-Day Weather Forecast

Advertisements
Track Severe Weather on mobile